createdAt,value
2022-12-11T00:01:26.312Z,61
2022-12-11T00:04:31.671Z,61
2022-12-11T00:07:36.920Z,60
2022-12-11T00:11:19.306Z,66
2022-12-11T00:14:16.459Z,62
2022-12-11T00:17:21.764Z,71
2022-12-11T00:20:27.020Z,58
2022-12-11T00:23:32.362Z,60
2022-12-11T00:26:37.649Z,59
2022-12-11T00:30:20.025Z,63
2022-12-11T00:33:25.357Z,61
2022-12-11T00:36:30.634Z,64
2022-12-11T00:39:35.995Z,58
2022-12-11T00:43:18.350Z,62
2022-12-11T00:46:23.674Z,58
2022-12-11T00:49:28.930Z,63
2022-12-11T00:52:34.260Z,62
2022-12-11T00:56:16.611Z,58
2022-12-11T00:59:21.925Z,63
2022-12-11T01:02:27.257Z,61
2022-12-11T01:05:32.590Z,63
2022-12-11T01:08:38.782Z,67
2022-12-11T01:11:06.093Z,60
2022-12-11T01:13:34.374Z,60
2022-12-11T01:16:31.518Z,66
2022-12-11T01:19:36.816Z,63
2022-12-11T01:23:19.133Z,63
2022-12-11T01:26:24.448Z,62
2022-12-11T01:29:29.769Z,65
2022-12-11T01:32:35.067Z,61
2022-12-11T01:36:17.506Z,60
2022-12-11T01:39:22.756Z,58
2022-12-11T01:42:28.109Z,64
2022-12-11T01:45:33.395Z,72
2022-12-11T01:48:42.157Z,81
2022-12-11T01:52:21.048Z,76
2022-12-11T01:55:26.363Z,71
2022-12-11T01:58:31.674Z,89
2022-12-11T02:01:37.012Z,82
2022-12-11T02:05:19.386Z,81
2022-12-11T02:08:24.718Z,69
2022-12-11T02:11:29.985Z,64
2022-12-11T02:14:27.113Z,69
2022-12-11T02:17:32.430Z,71
2022-12-11T02:20:37.702Z,61
2022-12-11T02:24:20.081Z,65
2022-12-11T02:27:25.368Z,59
2022-12-11T02:30:30.722Z,57
2022-12-11T02:33:36.001Z,63
2022-12-11T02:37:18.362Z,61
2022-12-11T02:40:23.699Z,64
2022-12-11T02:43:28.994Z,66
2022-12-11T02:46:34.294Z,67
2022-12-11T02:49:39.633Z,61
2022-12-11T02:53:21.997Z,64
2022-12-11T02:56:27.307Z,67
2022-12-11T02:59:32.583Z,64
2022-12-11T03:02:37.932Z,67
2022-12-11T03:05:06.138Z,69
2022-12-11T03:07:34.366Z,64
2022-12-11T03:10:39.690Z,66
2022-12-11T03:15:28.009Z,63
2022-12-11T03:18:33.357Z,60
2022-12-11T03:21:38.630Z,67
2022-12-11T03:25:20.990Z,62
2022-12-11T03:30:17.516Z,76
2022-12-11T03:33:22.786Z,69
2022-12-11T03:36:28.108Z,68
2022-12-11T03:39:33.427Z,67
2022-12-11T03:42:38.730Z,67
2022-12-11T03:46:21.167Z,72
2022-12-11T03:49:26.427Z,65
2022-12-11T03:52:31.770Z,64
2022-12-11T03:55:37.022Z,63
2022-12-11T03:59:19.419Z,66
2022-12-11T04:02:24.689Z,64
2022-12-11T04:05:30.047Z,84
2022-12-11T04:08:35.328Z,89
2022-12-11T04:12:17.689Z,88
2022-12-11T04:16:28.929Z,96
2022-12-11T04:19:34.244Z,89
2022-12-11T04:23:16.639Z,101
2022-12-11T04:26:21.944Z,103
2022-12-11T04:29:27.258Z,105
2022-12-11T04:32:32.566Z,109
2022-12-11T04:35:37.855Z,104
2022-12-11T04:39:20.244Z,105
2022-12-11T04:42:25.533Z,107
2022-12-11T04:45:30.821Z,99
2022-12-11T04:48:36.163Z,102
2022-12-11T04:52:18.564Z,104
2022-12-11T04:55:23.844Z,97
2022-12-11T04:58:29.157Z,102
2022-12-11T05:01:34.536Z,107
2022-12-11T05:04:39.763Z,101
2022-12-11T05:08:22.172Z,110
2022-12-11T05:11:27.451Z,99
2022-12-11T05:14:24.580Z,108
2022-12-11T05:17:29.856Z,102
2022-12-11T05:20:35.186Z,104
2022-12-11T05:24:17.524Z,110
2022-12-11T05:27:22.843Z,99
2022-12-11T05:30:28.199Z,103
2022-12-11T05:33:33.463Z,108
2022-12-11T05:36:38.823Z,104
2022-12-11T05:40:21.160Z,106
2022-12-11T05:43:26.469Z,109
2022-12-11T05:46:31.806Z,109
2022-12-11T05:49:37.089Z,102
2022-12-11T05:53:19.472Z,104
2022-12-11T05:56:24.770Z,100
2022-12-11T05:59:30.069Z,103
2022-12-11T06:02:35.511Z,106
2022-12-11T06:06:17.796Z,106
2022-12-11T06:09:23.049Z,103
2022-12-11T06:12:28.368Z,108
2022-12-11T06:15:25.461Z,107
2022-12-11T06:18:30.802Z,109
2022-12-11T06:21:36.088Z,104
2022-12-11T06:25:18.465Z,101
2022-12-11T06:28:23.789Z,104
2022-12-11T06:31:29.109Z,108
2022-12-11T06:34:34.415Z,114
2022-12-11T06:37:39.679Z,112
2022-12-11T06:41:22.067Z,110
2022-12-11T06:44:27.413Z,111
2022-12-11T06:48:09.770Z,102
2022-12-11T06:50:38.015Z,106
2022-12-11T06:54:20.359Z,105
2022-12-11T06:57:25.688Z,110
2022-12-11T07:00:31.036Z,111
2022-12-11T07:03:36.313Z,118
2022-12-11T07:07:18.656Z,110
2022-12-11T07:11:38.107Z,109
2022-12-11T07:15:12.646Z,113
2022-12-11T07:18:17.590Z,114
2022-12-11T07:21:22.905Z,112
2022-12-11T07:24:28.208Z,108
2022-12-11T07:27:33.546Z,111
2022-12-11T07:30:38.849Z,110
2022-12-11T07:34:21.188Z,109
2022-12-11T07:37:26.504Z,111
2022-12-11T07:40:31.842Z,105
2022-12-11T07:43:37.120Z,109
2022-12-11T07:47:19.493Z,109
2022-12-11T07:50:24.788Z,111
2022-12-11T07:53:30.121Z,104
2022-12-11T07:56:35.432Z,113
2022-12-11T08:00:17.807Z,105
2022-12-11T08:03:23.125Z,107
2022-12-11T08:06:28.405Z,114
2022-12-11T08:09:33.756Z,114
2022-12-11T08:12:39.023Z,112
2022-12-11T08:15:44.345Z,109
2022-12-11T08:19:18.563Z,111
2022-12-11T08:22:23.837Z,106
2022-12-11T08:25:29.131Z,123
2022-12-11T08:28:34.509Z,117
2022-12-11T08:31:39.745Z,116
2022-12-11T08:35:22.127Z,117
2022-12-11T08:38:27.438Z,120
2022-12-11T08:41:32.755Z,121
2022-12-11T08:44:38.051Z,106
2022-12-11T08:48:20.412Z,112
2022-12-11T08:51:25.722Z,124
2022-12-11T08:54:31.025Z,118
2022-12-11T08:57:36.346Z,118
2022-12-11T09:01:18.769Z,118
2022-12-11T09:04:24.063Z,120
2022-12-11T09:07:29.325Z,123
2022-12-11T09:10:34.662Z,117
2022-12-11T09:13:02.915Z,132
2022-12-11T09:15:31.204Z,122
2022-12-11T09:18:28.300Z,134
2022-12-11T09:21:33.576Z,127
2022-12-11T09:24:38.880Z,115
2022-12-11T09:28:21.259Z,123
2022-12-11T09:31:26.579Z,140
2022-12-11T09:34:31.873Z,135
2022-12-11T09:37:37.190Z,121
2022-12-11T09:41:19.561Z,125
2022-12-11T09:44:24.847Z,131
2022-12-11T09:47:30.151Z,130
2022-12-11T09:50:35.521Z,146
2022-12-11T09:54:17.826Z,157
2022-12-11T09:57:23.133Z,165
2022-12-11T10:03:34.033Z,153
2022-12-11T10:06:39.072Z,143
2022-12-11T10:10:21.478Z,153
2022-12-11T10:13:26.789Z,147
2022-12-11T10:18:15.073Z,155
2022-12-11T10:21:20.370Z,157
2022-12-11T10:24:57.779Z,159
2022-12-11T10:27:30.977Z,156
2022-12-11T10:30:36.292Z,153
2022-12-11T10:34:18.658Z,162
2022-12-11T10:37:24.005Z,167
2022-12-11T10:40:29.286Z,153
2022-12-11T10:43:34.602Z,143
2022-12-11T10:47:16.977Z,158
2022-12-11T10:50:22.273Z,163
2022-12-11T10:53:27.582Z,150
2022-12-11T10:56:32.902Z,154
2022-12-11T10:59:38.251Z,151
2022-12-11T11:03:20.567Z,140
2022-12-11T11:06:25.888Z,141
2022-12-11T11:09:31.217Z,148
2022-12-11T11:12:36.524Z,141
2022-12-11T11:16:18.916Z,132
2022-12-11T11:19:16.530Z,140
2022-12-11T11:22:21.280Z,131
2022-12-11T11:25:26.611Z,134
2022-12-11T11:28:31.950Z,138
2022-12-11T11:31:37.312Z,133
2022-12-11T11:35:19.619Z,135
2022-12-11T11:38:24.921Z,146
2022-12-11T11:41:30.227Z,144
2022-12-11T11:44:35.551Z,135
2022-12-11T11:48:17.933Z,141
2022-12-11T11:51:23.180Z,130
2022-12-11T11:54:28.529Z,131
2022-12-11T11:57:33.836Z,133
2022-12-11T12:00:39.123Z,131
2022-12-11T12:04:21.504Z,129
2022-12-11T12:07:27.861Z,135
2022-12-11T12:10:32.152Z,131
2022-12-11T12:13:50.387Z,141
2022-12-11T12:17:11.692Z,133
2022-12-11T12:20:16.953Z,145
2022-12-11T12:23:22.236Z,130
2022-12-11T12:26:27.543Z,131
2022-12-11T12:29:32.807Z,123
2022-12-11T12:32:38.156Z,132
2022-12-11T12:36:20.493Z,133
2022-12-11T12:39:25.846Z,131
2022-12-11T12:42:31.135Z,125
2022-12-11T12:45:36.487Z,136
2022-12-11T12:49:18.802Z,127
2022-12-11T12:52:24.112Z,136
2022-12-11T12:55:29.441Z,134
2022-12-11T12:58:34.738Z,135
2022-12-11T13:02:17.140Z,132
2022-12-11T13:05:22.433Z,129
2022-12-11T13:08:27.741Z,126
2022-12-11T13:11:33.003Z,130
2022-12-11T13:14:38.339Z,133
2022-12-11T13:17:43.684Z,136
2022-12-11T13:21:17.827Z,132
2022-12-11T13:24:23.103Z,143
2022-12-11T13:27:28.444Z,139
2022-12-11T13:30:33.725Z,136
2022-12-11T13:34:16.136Z,134
2022-12-11T13:37:21.458Z,142
2022-12-11T13:40:26.766Z,137
2022-12-11T13:43:32.066Z,133
2022-12-11T13:46:37.373Z,131
2022-12-11T13:50:19.767Z,140
2022-12-11T13:53:25.050Z,134
2022-12-11T13:56:30.381Z,152
2022-12-11T13:59:35.701Z,138
2022-12-11T14:03:18.031Z,140
2022-12-11T14:06:23.346Z,137
2022-12-11T14:09:28.723Z,139
2022-12-11T14:12:33.946Z,133
2022-12-11T14:15:39.340Z,144
2022-12-11T14:19:13.467Z,147
2022-12-11T14:22:18.737Z,154
2022-12-11T14:25:24.086Z,148
2022-12-11T14:28:29.392Z,147
2022-12-11T14:31:34.741Z,141
2022-12-11T14:35:17.067Z,149
2022-12-11T14:38:22.349Z,150
2022-12-11T14:41:27.699Z,152
2022-12-11T14:44:32.992Z,154
2022-12-11T14:47:38.312Z,145
2022-12-11T14:51:20.681Z,152
2022-12-11T14:54:25.973Z,159
2022-12-11T14:57:31.280Z,152
2022-12-11T15:00:36.606Z,150
2022-12-11T15:04:18.933Z,145
2022-12-11T15:07:24.282Z,162
2022-12-11T15:10:29.543Z,150
2022-12-11T15:13:34.893Z,146
2022-12-11T15:17:17.296Z,143
2022-12-11T15:20:14.747Z,143
2022-12-11T15:23:19.714Z,137
2022-12-11T15:26:24.977Z,143
2022-12-11T15:29:30.320Z,144
2022-12-11T15:32:35.615Z,146
2022-12-11T15:36:17.999Z,159
2022-12-11T15:39:23.297Z,145
2022-12-11T15:42:28.609Z,170
2022-12-11T15:45:33.901Z,164
2022-12-11T15:48:39.246Z,162
2022-12-11T15:52:21.601Z,157
2022-12-11T15:55:26.921Z,147
2022-12-11T15:58:32.154Z,137
2022-12-11T16:01:37.586Z,139
2022-12-11T16:05:19.938Z,138
2022-12-11T16:08:25.252Z,131
2022-12-11T16:11:30.489Z,141
2022-12-11T16:14:35.794Z,141
2022-12-11T16:18:18.163Z,132
2022-12-11T16:21:19.831Z,134
2022-12-11T16:24:20.583Z,156
2022-12-11T16:27:25.957Z,144
2022-12-11T16:30:31.213Z,156
2022-12-11T16:33:36.584Z,162
2022-12-11T16:37:18.914Z,163
2022-12-11T16:40:24.213Z,150
2022-12-11T16:43:29.514Z,157
2022-12-11T16:46:34.900Z,150
2022-12-11T16:49:40.141Z,151
2022-12-11T16:53:22.508Z,143
2022-12-11T16:56:28.839Z,148
2022-12-11T16:59:37.024Z,149
2022-12-11T17:02:38.442Z,165
2022-12-11T17:06:20.800Z,157
2022-12-11T17:09:26.125Z,149
2022-12-11T17:12:31.445Z,157
2022-12-11T17:15:36.755Z,158
2022-12-11T17:19:10.945Z,138
2022-12-11T17:21:39.213Z,146
2022-12-11T17:25:21.534Z,154
2022-12-11T17:28:26.832Z,147
2022-12-11T17:31:32.262Z,144
2022-12-11T17:34:38.482Z,155
2022-12-11T17:38:19.800Z,167
2022-12-11T17:41:25.147Z,179
2022-12-11T17:44:30.654Z,166
2022-12-11T17:47:35.758Z,162
2022-12-11T17:51:18.126Z,167
2022-12-11T17:54:23.470Z,156
2022-12-11T17:57:28.749Z,168
2022-12-11T18:00:34.124Z,163
2022-12-11T18:04:16.422Z,162
2022-12-11T18:07:21.741Z,153
2022-12-11T18:10:27.074Z,161
2022-12-11T18:13:32.385Z,166
2022-12-11T18:16:37.688Z,169
2022-12-11T18:21:25.988Z,171
2022-12-11T18:24:31.281Z,171
2022-12-11T18:27:36.553Z,171
2022-12-11T18:31:19.051Z,176
2022-12-11T18:34:24.277Z,168
2022-12-11T18:37:29.559Z,167
2022-12-11T18:40:34.907Z,172
2022-12-11T18:44:17.268Z,176
2022-12-11T18:47:22.537Z,175
2022-12-11T18:50:27.906Z,176
2022-12-11T18:53:33.190Z,175
2022-12-11T18:56:38.487Z,177
2022-12-11T19:00:20.935Z,173
2022-12-11T19:03:26.197Z,164
2022-12-11T19:06:31.476Z,167
2022-12-11T19:09:38.186Z,169
2022-12-11T19:13:19.133Z,161
2022-12-11T19:16:24.509Z,169
2022-12-11T19:21:12.816Z,164
2022-12-11T19:24:18.088Z,165
2022-12-11T19:27:23.379Z,157
2022-12-11T19:30:28.718Z,159
2022-12-11T19:33:33.976Z,168
2022-12-11T19:36:39.363Z,169
2022-12-11T19:40:21.733Z,174
2022-12-11T19:43:27.000Z,182
2022-12-11T19:46:32.345Z,170
2022-12-11T19:49:37.647Z,173
2022-12-11T19:53:19.972Z,174
2022-12-11T19:56:25.276Z,170
2022-12-11T19:59:30.596Z,159
2022-12-11T20:02:35.886Z,162
2022-12-11T20:06:18.269Z,184
2022-12-11T20:09:23.638Z,172
2022-12-11T20:12:28.958Z,173
2022-12-11T20:15:34.205Z,186
2022-12-11T20:19:16.601Z,187
2022-12-11T20:22:13.712Z,181
2022-12-11T20:25:19.013Z,167
2022-12-11T20:28:24.332Z,159
2022-12-11T20:31:29.722Z,167
2022-12-11T20:34:34.942Z,182
2022-12-11T20:38:17.282Z,171
2022-12-11T20:41:22.681Z,163
2022-12-11T20:44:27.925Z,158
2022-12-11T20:47:33.231Z,164
2022-12-11T20:50:38.524Z,172
2022-12-11T20:54:20.897Z,183
2022-12-11T20:57:26.217Z,175
2022-12-11T21:00:31.526Z,165
2022-12-11T21:03:41.857Z,166
2022-12-11T21:07:19.191Z,164
2022-12-11T21:10:24.512Z,161
2022-12-11T21:13:29.872Z,170
2022-12-11T21:16:35.157Z,176
2022-12-11T21:20:17.512Z,168
2022-12-11T21:23:14.640Z,169
2022-12-11T21:26:19.936Z,168
2022-12-11T21:29:25.248Z,177
2022-12-11T21:32:30.559Z,157
2022-12-11T21:35:35.853Z,164
2022-12-11T21:39:18.226Z,157
2022-12-11T21:42:23.536Z,162
2022-12-11T21:45:59.640Z,163
2022-12-11T21:48:34.172Z,153
2022-12-11T21:52:16.535Z,162
2022-12-11T21:55:21.822Z,159
2022-12-11T21:58:27.144Z,157
2022-12-11T22:01:32.507Z,146
2022-12-11T22:04:37.874Z,104
2022-12-11T22:08:20.227Z,81
2022-12-11T22:11:25.447Z,66
2022-12-11T22:14:30.739Z,63
2022-12-11T22:17:36.079Z,104
2022-12-11T22:21:18.453Z,119
2022-12-11T22:24:15.544Z,132
2022-12-11T22:27:23.796Z,151
2022-12-11T22:30:26.281Z,138
2022-12-11T22:33:31.472Z,139
2022-12-11T22:36:36.781Z,133
2022-12-11T22:40:19.136Z,128
2022-12-11T22:43:24.468Z,118
2022-12-11T22:46:29.806Z,126
2022-12-11T22:49:35.093Z,128
2022-12-11T22:53:17.488Z,134
2022-12-11T22:56:22.802Z,120
2022-12-11T22:59:28.084Z,115
2022-12-11T23:02:33.388Z,116
2022-12-11T23:05:38.717Z,98
2022-12-11T23:09:21.050Z,100
2022-12-11T23:12:26.368Z,71
2022-12-11T23:15:31.682Z,72
2022-12-11T23:18:37.005Z,65
2022-12-11T23:21:42.343Z,58
2022-12-11T23:25:16.503Z,77
2022-12-11T23:28:21.806Z,66
2022-12-11T23:31:27.161Z,73
2022-12-11T23:34:32.422Z,84
2022-12-11T23:39:28.952Z,74
2022-12-11T23:42:34.264Z,77
2022-12-11T23:45:39.518Z,65
2022-12-11T23:49:21.937Z,70
2022-12-11T23:52:27.189Z,75
2022-12-11T23:55:32.505Z,72
2022-12-11T23:58:37.824Z,59
